Data for 10/30/2009

Time Sea-Level Adjusted Pressure Absolute Pressure Temperature Relative Humidity Dew Point   
(mb) (inHg) (mb) (inHg) (C) (F) (%) (C) (F)
00:05 1012 29.88 841 24.83 -0.9 30.3 94 -1.8 28.8
00:10 1012 29.88 841 24.83 -0.9 30.3 94 -1.8 28.8
00:15 1012 29.88 841 24.83 -0.9 30.4 94 -1.7 28.9
00:20 1012 29.88 841 24.83 -0.9 30.4 94 -1.7 28.9
00:25 1012 29.88 841 24.83 -0.8 30.5 94 -1.7 29
00:30 1012 29.88 841 24.83 -0.8 30.5 94 -1.7 29
00:35 1012 29.88 841 24.83 -0.8 30.6 94 -1.7 29
00:40 1012 29.88 841 24.83 -0.9 30.5 94 -1.7 29
00:45 1012 29.88 841 24.83 -0.8 30.5 94 -1.7 29
00:50 1012 29.88 841 24.83 -0.8 30.5 94 -1.6 29.1
00:55 1012 29.88 841 24.83 -0.9 30.5 94 -1.7 28.9
01:00 1012 29.88 841 24.83 -1.1 30 95 -1.8 28.7
01:05 1012 29.88 841 24.83 -1.2 29.9 95 -1.9 28.6
01:10 1012 29.88 841 24.83 -1.2 29.8 95 -1.9 28.6
01:15 1012 29.88 841 24.83 -1.2 29.8 96 -1.8 28.7
01:20 1012 29.88 841 24.83 -1.2 29.8 96 -1.8 28.7
01:25 1012 29.88 841 24.83 -1.3 29.7 96 -1.8 28.7
01:30 1012 29.88 841 24.83 -1.3 29.6 97 -1.8 28.8
01:35 1012 29.88 841 24.83 -1.2 29.8 97 -1.6 29
01:40 1012 29.88 841 24.83 -1 30.2 97 -1.5 29.3
01:45 1012 29.88 841 24.83 -0.9 30.5 96 -1.4 29.6
01:50 1012 29.88 841 24.83 -0.8 30.6 96 -1.4 29.5
01:55 1011 29.85 841 24.83 -0.7 30.7 96 -1.4 29.6
02:00 1012 29.88 841 24.83 -0.7 30.8 95 -1.4 29.6
02:05 1012 29.88 841 24.83 -0.6 30.9 95 -1.3 29.7
02:10 1011 29.85 841 24.83 -0.6 30.9 95 -1.3 29.6
02:15 1011 29.85 841 24.83 -0.6 30.8 95 -1.3 29.6
02:20 1011 29.85 841 24.83 -0.6 30.9 95 -1.4 29.6
02:25 1011 29.85 841 24.83 -0.6 30.9 95 -1.3 29.7
02:30 1011 29.85 840 24.81 -0.7 30.8 94 -1.6 29.2
02:35 1011 29.85 841 24.83 -1.1 30.1 96 -1.7 29
02:40 1011 29.85 841 24.83 -1.1 30 96 -1.7 29
02:45 1012 29.88 841 24.83 -1.1 30 96 -1.6 29.1
02:50 1012 29.88 841 24.83 -1 30.3 96 -1.5 29.4
02:55 1012 29.88 841 24.83 -0.9 30.5 97 -1.3 29.6
03:00 1012 29.88 841 24.83 -0.7 30.7 96 -1.2 29.8
03:05 1012 29.88 841 24.83 -0.7 30.7 96 -1.3 29.7
03:10 1012 29.88 841 24.83 -0.6 30.9 96 -1.2 29.8
03:15 1012 29.88 841 24.83 -0.6 31 95 -1.2 29.8
03:20 1012 29.88 841 24.83 -0.5 31.1 96 -1.1 29.9
03:25 1012 29.88 841 24.83 -0.5 31.1 95 -1.2 29.9
03:30 1012 29.88 841 24.83 -0.5 31.1 95 -1.2 29.9
03:35 1012 29.88 841 24.83 -0.5 31.1 95 -1.2 29.9
03:40 1012 29.88 841 24.83 -0.5 31.2 95 -1.2 29.9
03:45 1012 29.88 841 24.83 -0.4 31.3 95 -1.1 30.1
03:50 1012 29.88 841 24.83 -0.3 31.4 95 -1.1 30
03:55 1012 29.88 841 24.83 -0.3 31.5 95 -1.1 30.1
04:00 1012 29.88 841 24.83 -0.3 31.5 95 -1 30.1
04:05 1012 29.88 841 24.83 -0.2 31.6 95 -1 30.2
04:10 1012 29.88 841 24.83 -0.3 31.5 95 -1 30.2
04:15 1011 29.85 841 24.83 -0.2 31.6 95 -1 30.3
04:20 1012 29.88 841 24.83 -0.1 31.8 94 -0.9 30.3
04:25 1012 29.88 841 24.83 -0.1 31.8 94 -0.9 30.3
04:30 1012 29.88 841 24.83 -0.1 31.8 94 -0.9 30.3
04:35 1012 29.88 841 24.83 -0.1 31.8 95 -0.9 30.4
04:40 1012 29.88 841 24.83 -0.1 31.8 95 -0.9 30.5
04:45 1012 29.88 841 24.83 -0.1 31.9 95 -0.8 30.6
04:50 1012 29.88 841 24.83 0 32 94 -0.8 30.6
04:55 1012 29.88 841 24.83 0.1 32.2 94 -0.8 30.6
05:00 1012 29.88 841 24.83 0.1 32.3 94 -0.7 30.8
05:05 1012 29.88 841 24.83 0.2 32.4 94 -0.6 30.8
05:10 1012 29.88 841 24.83 0.3 32.5 94 -0.6 30.9
05:15 1012 29.88 841 24.83 0.4 32.7 94 -0.5 31.2
05:20 1012 29.88 841 24.83 0.5 32.9 94 -0.4 31.2
05:25 1012 29.88 841 24.83 0.5 32.9 94 -0.4 31.3
05:30 1012 29.88 841 24.83 0.5 32.9 93 -0.5 31.2
05:35 1012 29.88 841 24.83 0.2 32.4 94 -0.6 30.9
05:40 1012 29.88 841 24.83 0.1 32.2 95 -0.6 30.9
05:45 1012 29.88 841 24.83 0.2 32.3 95 -0.5 31.1
05:50 1012 29.88 841 24.83 0.2 32.4 95 -0.5 31.1
05:55 1012 29.88 841 24.83 0.3 32.5 95 -0.4 31.2
06:00 1012 29.88 841 24.83 0.4 32.7 94 -0.4 31.2
06:05 1012 29.88 841 24.83 0.3 32.6 94 -0.5 31.1
06:10 1012 29.88 841 24.83 0.3 32.6 95 -0.4 31.2
06:15 1012 29.88 841 24.83 0.4 32.8 94 -0.4 31.3
06:20 1012 29.88 842 24.86 0.5 32.9 94 -0.4 31.3
06:25 1012 29.88 842 24.86 0.6 33.2 94 -0.2 31.6
06:30 1012 29.88 842 24.86 0.6 33 95 -0.1 31.7
06:35 1012 29.88 842 24.86 1.1 33.9 93 -0 32
06:40 1012 29.88 842 24.86 1.4 34.5 91 0.1 32.2
06:45 1012 29.88 842 24.86 1.8 35.2 88 -0 31.9
06:50 1012 29.88 842 24.86 2.3 36.1 87 0.3 32.5
06:55 1013 29.91 842 24.86 2.3 36.1 87 0.3 32.6
07:00 1013 29.91 842 24.86 2.4 36.4 85 0.2 32.3
07:05 1013 29.91 842 24.86 2.3 36.2 87 0.4 32.7
07:10 1013 29.91 842 24.86 2.3 36.1 87 0.4 32.6
07:15 1013 29.91 842 24.86 2.3 36.1 88 0.4 32.8
07:20 1013 29.91 842 24.86 2.4 36.3 86 0.4 32.6
07:25 1013 29.91 842 24.86 2.5 36.4 86 0.4 32.7
07:30 1013 29.91 842 24.86 2.5 36.4 86 0.4 32.7
07:35 1013 29.91 842 24.86 2.4 36.2 86 0.3 32.5
07:40 1013 29.91 842 24.86 2.3 36.1 86 0.1 32.3
07:45 1013 29.91 842 24.86 2.3 36.2 86 0.3 32.5
07:50 1013 29.91 842 24.86 2.4 36.3 85 0.1 32.1
07:55 1013 29.91 842 24.86 2.4 36.4 86 0.3 32.6
08:00 1013 29.91 842 24.86 2.3 36.2 86 0.3 32.5
08:05 1013 29.91 842 24.86 2.3 36.2 86 0.1 32.2
08:10 1013 29.91 842 24.86 2.5 36.4 84 0.1 32.2
08:15 1013 29.91 842 24.86 2.5 36.5 86 0.3 32.5
08:20 1013 29.91 843 24.89 2.5 36.5 86 0.3 32.6
08:25 1013 29.91 843 24.89 2.5 36.5 85 0.3 32.5
08:30 1013 29.91 842 24.86 2.8 37.1 83 0.2 32.3
08:35 1013 29.91 843 24.89 3.3 37.9 81 0.3 32.5
08:40 1013 29.91 843 24.89 3.4 38.2 81 0.6 33
08:45 1014 29.94 843 24.89 3.3 37.9 84 0.8 33.4
08:50 1014 29.94 843 24.89 2.8 37.1 87 0.8 33.5
08:55 1014 29.94 843 24.89 2.3 36.2 89 0.7 33.3
09:00 1014 29.94 843 24.89 2.2 36 90 0.7 33.3
09:05 1014 29.94 843 24.89 2.2 35.9 90 0.7 33.3
09:10 1014 29.94 843 24.89 2.2 35.9 91 0.8 33.5
09:15 1014 29.94 843 24.89 2.3 36.2 91 1 33.7
09:20 1014 29.94 843 24.89 2.3 36.2 91 1 33.8
09:25 1014 29.94 843 24.89 2.5 36.5 90 1 33.8
09:30 1014 29.94 843 24.89 2.7 36.9 89 1.1 33.9
09:35 1014 29.94 843 24.89 2.8 37.1 89 1.1 34
09:40 1014 29.94 843 24.89 2.9 37.3 88 1.2 34.2
09:45 1014 29.94 843 24.89 2.9 37.3 88 1.2 34.1
09:50 1014 29.94 843 24.89 2.9 37.2 89 1.3 34.3
09:55 1014 29.94 843 24.89 2.9 37.3 89 1.3 34.3
10:00 1014 29.94 843 24.89 3.2 37.7 88 1.4 34.5
10:05 1014 29.94 843 24.89 3.6 38.5 86 1.5 34.7
10:10 1014 29.94 843 24.89 4.3 39.7 83 1.6 34.9
10:15 1014 29.94 843 24.89 4.6 40.2 84 2.1 35.8
10:20 1014 29.94 843 24.89 4.5 40.1 84 2.1 35.7
10:25 1014 29.94 843 24.89 4.4 39.9 85 2 35.6
10:30 1014 29.94 843 24.89 4.4 39.9 85 2.1 35.8
10:35 1014 29.94 843 24.89 4.5 40.1 84 2 35.6
10:40 1014 29.94 844 24.92 4.6 40.2 83 1.9 35.5
10:45 1014 29.94 844 24.92 4.6 40.3 83 2 35.5
10:50 1014 29.94 844 24.92 4.7 40.4 82 1.9 35.4
10:55 1015 29.97 844 24.92 4.8 40.7 83 2.2 36
11:00 1015 29.97 844 24.92 4.7 40.4 84 2.1 35.8
11:05 1014 29.94 844 24.92 4.5 40.2 83 1.8 35.3
11:10 1014 29.94 844 24.92 4.7 40.4 83 1.9 35.5
11:15 1014 29.94 844 24.92 4.7 40.4 84 2.2 36
11:20 1015 29.97 844 24.92 4.7 40.4 82 1.8 35.3
11:25 1015 29.97 844 24.92 4.8 40.6 81 1.8 35.3
11:30 1015 29.97 844 24.92 4.9 40.7 80 1.7 35.1
11:35 1015 29.97 844 24.92 4.9 40.8 82 2 35.6
11:40 1015 29.97 844 24.92 4.8 40.7 81 1.8 35.2
11:45 1015 29.97 844 24.92 5 41.1 81 2.1 35.7
11:50 1015 29.97 844 24.92 5.2 41.3 82 2.4 36.3
11:55 1014 29.94 844 24.92 4.9 40.9 82 2.1 35.8
12:00 1015 29.97 844 24.92 5.2 41.4 82 2.5 36.5
12:05 1015 29.97 844 24.92 5.5 41.8 80 2.2 36
12:10 1015 29.97 844 24.92 5.5 41.9 81 2.6 36.6
12:15 1015 29.97 844 24.92 5.4 41.7 82 2.5 36.5
12:20 1015 29.97 844 24.92 5.3 41.6 80 2.2 35.9
12:25 1015 29.97 844 24.92 5.5 41.9 80 2.2 36
12:30 1015 29.97 844 24.92 5.6 42.2 79 2.4 36.2
12:35 1015 29.97 844 24.92 5.3 41.6 81 2.3 36.1
12:40 1015 29.97 844 24.92 5.3 41.5 81 2.3 36.1
12:45 1015 29.97 844 24.92 5.3 41.6 80 2.2 35.9
12:50 1015 29.97 844 24.92 5.3 41.5 79 2 35.5
12:55 1015 29.97 844 24.92 5.5 41.9 78 1.9 35.4
13:00 1015 29.97 844 24.92 5.5 41.9 78 2 35.7
13:05 1015 29.97 844 24.92 5.8 42.5 78 2.3 36.1
13:10 1015 29.97 844 24.92 6.2 43.2 76 2.4 36.3
13:15 1015 29.97 844 24.92 6.4 43.5 75 2.3 36.2
13:20 1015 29.97 844 24.92 6.4 43.6 77 2.6 36.7
13:25 1015 29.97 844 24.92 6.5 43.7 76 2.6 36.7
13:30 1015 29.97 844 24.92 6.5 43.7 75 2.3 36.2
13:35 1015 29.97 844 24.92 6.6 43.8 76 2.6 36.7
13:40 1015 29.97 844 24.92 6.6 43.9 76 2.8 37
13:45 1015 29.97 844 24.92 6.5 43.7 77 2.7 36.9
13:50 1015 29.97 844 24.92 6.5 43.7 74 2.3 36.1
13:55 1015 29.97 844 24.92 6.5 43.7 74 2.1 35.8
14:00 1015 29.97 844 24.92 6.6 43.9 72 1.9 35.4
14:05 1015 29.97 844 24.92 6.9 44.3 68 1.3 34.4
14:10 1015 29.97 844 24.92 7.1 44.9 68 1.6 34.9
14:15 1015 29.97 844 24.92 7.3 45.1 66 1.4 34.5
14:20 1015 29.97 844 24.92 7.5 45.6 65 1.5 34.6
14:25 1015 29.97 844 24.92 7.5 45.5 65 1.4 34.5
14:30 1015 29.97 844 24.92 7.6 45.6 64 1.3 34.3
14:35 1014 29.94 844 24.92 7.7 45.9 63 1.1 34
14:40 1015 29.97 844 24.92 7.8 46 63 1.1 34
14:45 1015 29.97 844 24.92 7.9 46.2 62 1.1 34.1
14:50 1014 29.94 844 24.92 8.1 46.5 63 1.4 34.4
14:55 1014 29.94 844 24.92 8.1 46.5 62 1.2 34.2
15:00 1014 29.94 844 24.92 8.3 46.9 62 1.5 34.7
15:05 1014 29.94 844 24.92 8.2 46.8 62 1.4 34.6
15:10 1014 29.94 844 24.92 8.3 46.9 62 1.4 34.5
15:15 1015 29.97 844 24.92 8.4 47.1 61 1.4 34.5
15:20 1015 29.97 844 24.92 8.7 47.7 60 1.4 34.6
15:25 1015 29.97 844 24.92 8.9 48 60 1.6 34.8
15:30 1015 29.97 844 24.92 8.9 48.1 59 1.5 34.7
15:35 1015 29.97 844 24.92 9.1 48.3 59 1.5 34.7
15:40 1015 29.97 844 24.92 9.1 48.3 60 1.8 35.2
15:45 1015 29.97 844 24.92 9 48.3 61 1.9 35.5
15:50 1015 29.97 844 24.92 8.8 47.8 64 2.4 36.4
15:55 1015 29.97 844 24.92 8.5 47.2 65 2.3 36.2
16:00 1015 29.97 844 24.92 8.5 47.2 64 2.1 35.7
16:05 1015 29.97 844 24.92 8.7 47.6 63 1.9 35.5
16:10 1015 29.97 844 24.92 8.9 47.9 60 1.6 34.9
16:15 1015 29.97 844 24.92 9.1 48.3 59 1.5 34.8
16:20 1015 29.97 845 24.95 9 48.3 61 1.9 35.4
16:25 1015 29.97 845 24.95 8.9 48 62 2.1 35.8
16:30 1015 29.97 845 24.95 8.7 47.7 65 2.4 36.4
16:35 1016 30 845 24.95 8.5 47.3 66 2.5 36.6
16:40 1016 30 845 24.95 8.4 47.1 66 2.4 36.4
16:45 1016 30 845 24.95 8.5 47.2 63 1.8 35.3
16:50 1016 30 845 24.95 8.8 47.8 61 1.6 34.9
16:55 1016 30 845 24.95 8.9 48 61 1.9 35.3
17:00 1016 30 845 24.95 8.9 48.1 62 2.1 35.7
17:05 1016 30 845 24.95 8.8 47.9 63 2.3 36.1
17:10 1015 29.97 845 24.95 8.7 47.7 63 2.1 35.7
17:15 1015 29.97 845 24.95 8.8 47.8 61 1.8 35.2
17:20 1016 30 845 24.95 9 48.3 60 1.7 35.1
17:25 1015 29.97 845 24.95 9.2 48.6 60 1.8 35.3
17:30 1016 30 845 24.95 9.2 48.6 60 1.8 35.2
17:35 1016 30 845 24.95 9.2 48.5 60 1.8 35.3
17:40 1016 30 845 24.95 8.9 47.9 64 2.4 36.3
17:45 1016 30 845 24.95 8.5 47.2 64 2 35.7
17:50 1016 30 845 24.95 8.2 46.8 63 1.7 35.1
17:55 1016 30 845 24.95 8.4 47.1 61 1.3 34.3
18:00 1015 29.97 845 24.95 8.5 47.4 60 1.2 34.1
18:05 1016 30 845 24.95 8.8 47.8 59 1.3 34.4
18:10 1016 30 845 24.95 8.8 47.8 60 1.5 34.7
18:15 1016 30 845 24.95 8.6 47.6 60 1.3 34.3
18:20 1016 30 845 24.95 8.7 47.6 60 1.3 34.4
18:25 1016 30 845 24.95 8.7 47.7 59 1.1 34
18:30 1016 30 845 24.95 8.7 47.7 58 1 33.8
18:35 1016 30 845 24.95 8.8 47.8 58 1.1 33.9
18:40 1016 30 845 24.95 8.8 47.8 58 1 33.9
18:45 1016 30 845 24.95 8.8 47.8 58 1 33.8
18:50 1016 30 845 24.95 8.8 47.8 58 1 33.8
18:55 1016 30 845 24.95 8.6 47.5 59 1.1 33.9
19:00 1016 30 845 24.95 8.4 47.1 60 1.2 34.1
19:05 1016 30 845 24.95 8.2 46.7 61 1.1 33.9
19:10 1016 30 845 24.95 8 46.4 61 1 33.8
19:15 1016 30 845 24.95 8 46.5 61 1 33.8
19:20 1016 30 846 24.98 8.1 46.5 63 1.5 34.6
19:25 1016 30 846 24.98 7.7 45.9 63 1.1 34
19:30 1016 30 846 24.98 7.7 45.8 63 1.2 34.1
19:35 1016 30 846 24.98 7.6 45.7 64 1.2 34.1
19:40 1017 30.03 846 24.98 7.4 45.3 65 1.3 34.3
19:45 1017 30.03 846 24.98 7.3 45.1 64 1 33.9
19:50 1017 30.03 846 24.98 7.5 45.5 63 1 33.8
19:55 1017 30.03 846 24.98 7.6 45.7 63 1 33.9
20:00 1017 30.03 846 24.98 7.8 46.1 61 0.9 33.6
20:05 1017 30.03 846 24.98 7.9 46.3 62 1.1 34
20:10 1017 30.03 846 24.98 8 46.3 62 1.2 34.1
20:15 1017 30.03 846 24.98 8 46.3 63 1.4 34.5
20:20 1017 30.03 846 24.98 7.8 46.1 64 1.5 34.7
20:25 1017 30.03 846 24.98 7.6 45.8 65 1.5 34.7
20:30 1017 30.03 846 24.98 7.6 45.7 65 1.5 34.7
20:35 1017 30.03 846 24.98 7.6 45.7 65 1.5 34.7
20:40 1017 30.03 846 24.98 7.6 45.6 66 1.6 34.9
20:45 1017 30.03 846 24.98 7.5 45.5 65 1.4 34.6
20:50 1017 30.03 846 24.98 7.6 45.7 65 1.4 34.6
20:55 1017 30.03 846 24.98 7.9 46.2 62 1.1 34
21:00 1017 30.03 846 24.98 8.1 46.5 63 1.5 34.6
21:05 1017 30.03 846 24.98 8.1 46.6 62 1.3 34.3
21:10 1016 30 846 24.98 8.1 46.6 63 1.4 34.6
21:15 1016 30 846 24.98 7.8 46.1 65 1.7 35.1
21:20 1016 30 846 24.98 7.4 45.3 66 1.5 34.8
21:25 1016 30 846 24.98 7.3 45.1 67 1.6 34.8
21:30 1016 30 846 24.98 7.1 44.8 68 1.6 34.8
21:35 1017 30.03 846 24.98 6.9 44.4 68 1.5 34.7
21:40 1017 30.03 846 24.98 6.9 44.5 67 1.3 34.4
21:45 1017 30.03 846 24.98 7 44.7 67 1.4 34.5
21:50 1017 30.03 846 24.98 7 44.7 67 1.4 34.5
21:55 1017 30.03 846 24.98 7.1 44.8 67 1.4 34.5
22:00 1017 30.03 846 24.98 7.1 44.9 67 1.5 34.7
22:05 1017 30.03 846 24.98 7 44.6 67 1.4 34.5
22:10 1017 30.03 846 24.98 7 44.6 67 1.4 34.5
22:15 1017 30.03 847 25.01 7 44.6 67 1.3 34.3
22:20 1017 30.03 847 25.01 7.1 44.7 66 1.3 34.3
22:25 1017 30.03 847 25.01 7.1 44.8 66 1.2 34.2
22:30 1018 30.06 847 25.01 7.2 44.9 66 1.3 34.3
22:35 1018 30.06 847 25.01 7.1 44.8 66 1.2 34.2
22:40 1018 30.06 847 25.01 7.1 44.7 67 1.3 34.4
22:45 1018 30.06 847 25.01 6.9 44.5 67 1.3 34.3
22:50 1018 30.06 847 25.01 6.7 44.1 68 1.2 34.2
22:55 1018 30.06 847 25.01 6.6 43.9 68 1.2 34.1
23:00 1018 30.06 847 25.01 6.5 43.8 69 1.2 34.2
23:05 1018 30.06 847 25.01 6.5 43.7 68 1 33.9
23:10 1018 30.06 847 25.01 6.6 43.8 67 1 33.7
23:15 1018 30.06 847 25.01 6.8 44.2 66 0.9 33.7
23:20 1018 30.06 847 25.01 7 44.5 65 0.9 33.5
23:25 1018 30.06 847 25.01 7.2 44.9 64 0.8 33.5
23:30 1018 30.06 847 25.01 7.1 44.8 64 0.8 33.5
23:35 1018 30.06 847 25.01 7.2 45 62 0.5 32.8
23:40 1017 30.03 847 25.01 7.4 45.4 60 0.1 32.2
23:45 1018 30.06 847 25.01 7.5 45.6 59 -0 31.9
23:50 1018 30.06 847 25.01 7.9 46.1 57 -0 32
23:55 1018 30.06 847 25.01 8 46.4 58 0.2 32.4
24:00 1018 30.06 847 25.01 7.8 46.1 60 0.5 32.9